Lynnfield, Massachusetts
Current Conditions -  °F | °C
As of 7:53 PM on Sunday 23 Nov 2014 (Local Time) from KBVY Reporting Station
Overcast Overcast  
Wind Chill: 51°   Ceiling: 10000
Heat Index: 51°   Visibility: 10mi
Dew Point: 34°   Wind: 6mph
Humidity: 52%   Direction: 180°S
Pressure: 30.12"   Gusts: NA
Location:  42.54°N, 71.05°W
Report Text: KBVY 240053Z AUTO 18005KT 10SM OVC100 11/01 A3012 RMK AO2 SLP197 T01060011
Loading
Personal Weather Stations






























Interactive Weather Map New forecast layout! Learn more

10-Day Weather Forecast

Advertisements
Track Severe Weather on mobile